Latest Weather Observations for Kilmore Gap

IDV60801

Issued at 4:02 pm EDT Sunday 21 December 2014 (issued every 30 minutes, with the page automatically refreshed every 10 minutes)

About weather observations | Map of weather stations | Latest weather observations for VIC | Other Formats
Station Details ID: 088162 Name: KILMORE GAP Lat: -37.38 Lon: 144.97 Height: 527.8 m
Data from the previous 72 hours. | See also: Recent months at Kilmore Gap
Date/Time
EDT
Temp
°C
App
Temp
°C
Dew
Point
Rel
Hum
%
Delta-T
°C
Wind Press
QNH
hPa
Press
MSL
hPa
Rain
since 9 am
mm
Dir
 
Spd
km/h
Gust
km/h
Spd
kts
Gust
kts
21/04:00pm 29.1 24.9 5.9 23 12.5 WNW 17 26 9 14 1014.1 - 0.0
21/03:30pm 30.8 25.5 6.6 22 13.3 W 24 33 13 18 1014.2 - 0.0
21/03:00pm 28.8 25.2 6.8 25 12.0 WNW 15 24 8 13 1014.6 1013.3 0.0
21/02:30pm 29.3 25.2 6.0 23 12.6 NW 17 24 9 13 1015.0 - 0.0
21/02:00pm 27.8 25.3 6.6 26 11.5 NW 9 32 5 17 1015.4 - 0.0
21/01:30pm 29.1 26.1 7.6 26 11.9 WNW 13 28 7 15 1015.6 - 0.0
21/01:00pm 28.9 26.2 9.1 29 11.2 NNW 13 24 7 13 1015.9 - 0.0
21/12:30pm 28.5 24.7 7.7 27 11.5 WNW 17 24 9 13 1016.0 - 0.0
21/12:00pm 28.0 24.4 8.3 29 11.0 NW 17 26 9 14 1016.3 1015.1 0.0
21/11:30am 27.1 22.7 9.0 32 10.2 NNW 22 41 12 22 1016.1 - 0.0
21/11:00am 26.1 21.7 9.0 34 9.5 NNW 22 32 12 17 1016.1 - 0.0
21/10:30am 25.3 21.0 9.2 36 9.0 N 22 33 12 18 1016.1 - 0.0
21/10:00am 24.9 20.9 9.2 37 8.7 N 20 28 11 15 1016.1 - 0.0
21/09:30am 23.6 19.7 8.8 39 8.1 N 19 28 10 15 1016.4 - 0.0
21/09:00am 22.3 19.3 9.1 43 7.2 N 15 19 8 10 1016.3 1015.1 0.0
21/08:30am 20.9 18.3 10.7 52 5.7 N 15 20 8 11 1016.2 - 0.0
21/08:00am 18.9 16.0 9.7 55 5.0 N 15 20 8 11 1016.1 - 0.0
21/07:30am 17.7 15.0 9.1 57 4.6 N 13 17 7 9 1016.4 - 0.0
21/07:00am 17.4 14.5 8.3 55 4.8 N 13 15 7 8 1016.0 - 0.0
21/06:30am 16.6 12.9 7.8 56 4.6 N 17 17 9 9 1015.8 - 0.0
21/06:00am 16.1 12.4 8.1 59 4.2 NNE 17 19 9 10 1015.4 1014.1 0.0
21/05:30am 14.6 10.5 7.9 64 3.4 NNE 19 20 10 11 1015.2 - 0.0
21/05:00am 15.0 10.9 8.0 63 3.6 NNE 19 20 10 11 1015.0 - 0.0
21/04:30am 14.4 12.0 8.6 68 3.0 ESE 11 17 6 9 1015.0 - 0.0
21/04:00am 13.7 11.5 10.9 83 1.5 SE 13 17 7 9 1015.2 - 0.0
21/03:30am 12.2 10.8 12.2 100 0.0 SSE 11 15 6 8 1015.5 - 0.0
21/03:15am 11.7 10.1 11.7 100 0.0 SSE 11 13 6 7 1015.6 - 0.0
21/03:00am 11.1 9.4 11.1 100 0.0 S 11 13 6 7 1015.7 1014.5 0.0
21/02:30am 10.8 9.4 10.8 100 0.0 S 9 11 5 6 1016.0 - 0.0
21/02:02am 10.9 9.1 10.9 100 0.0 S 11 13 6 7 1016.3 - 0.0
21/02:00am 11.0 9.2 11.0 100 0.0 S 11 13 6 7 1016.3 - 0.0
21/01:47am 11.2 9.1 11.2 100 0.0 S 13 17 7 9 1016.6 - 0.0
21/01:45am 11.2 8.7 11.2 100 0.0 S 15 17 8 9 1016.6 - 0.0
21/01:30am 11.3 9.2 11.3 100 0.0 S 13 19 7 10 1016.7 - 0.0
21/01:00am 11.5 9.1 11.5 100 0.0 S 15 20 8 11 1017.1 - 0.0
21/12:30am 11.6 8.5 11.6 100 0.0 S 19 24 10 13 1017.4 - 0.0
21/12:15am 11.8 9.1 11.8 100 0.0 S 17 22 9 12 1017.5 - 0.0
21/12:00am 11.8 8.8 11.8 100 0.0 S 19 24 10 13 1017.7 1016.5 0.0
 
Date/Time
EDT
Temp
°C
App
Temp
°C
Dew
Point
Rel
Hum
%
Delta-T
°C
Wind Press
QNH
hPa
Press
MSL
hPa
Rain
since 9 am
mm
Dir
 
Spd
km/h
Gust
km/h
Spd
kts
Gust
kts
20/11:30pm 11.9 8.9 11.9 100 0.0 S 19 24 10 13 1017.9 - 0.0
20/11:00pm 12.0 9.0 11.8 99 0.1 S 19 24 10 13 1018.0 - 0.0
20/10:30pm 12.4 9.4 11.9 97 0.3 SSW 19 24 10 13 1018.3 - 0.0
20/10:00pm 12.6 9.9 11.7 94 0.5 S 17 24 9 13 1018.3 - 0.0
20/09:30pm 13.3 10.3 11.9 91 0.8 SSW 19 24 10 13 1018.1 - 0.0
20/09:00pm 14.0 11.4 11.9 87 1.2 S 17 24 9 13 1017.8 1016.6 0.0
20/08:30pm 15.1 12.3 11.3 78 2.1 S 17 24 9 13 1017.8 - 0.0
20/08:00pm 17.1 13.9 11.2 68 3.3 S 19 30 10 16 1017.7 - 0.0
20/07:30pm 18.8 15.2 10.4 58 4.6 S 20 30 11 16 1017.3 - 0.0
20/07:00pm 20.1 15.8 9.4 50 5.8 S 22 32 12 17 1017.1 - 0.0
20/06:30pm 21.5 17.3 9.7 47 6.5 S 22 35 12 19 1017.0 - 0.0
20/06:00pm 22.6 19.0 9.7 44 7.2 S 19 28 10 15 1016.6 1015.3 0.0
20/05:30pm 23.1 19.8 9.5 42 7.5 S 17 28 9 15 1016.7 - 0.0
20/05:00pm 22.5 18.8 9.6 44 7.1 SE 19 28 10 15 1016.8 - 0.0
20/04:30pm 22.2 18.8 9.0 43 7.2 S 17 30 9 16 1017.0 - 0.0
20/04:00pm 22.8 19.0 8.9 41 7.6 S 19 28 10 15 1017.5 - 0.0
20/03:30pm 23.3 20.6 9.0 40 7.9 S 13 22 7 12 1017.8 - 0.0
20/03:00pm 22.6 19.3 9.4 43 7.3 SSW 17 24 9 13 1018.1 1016.9 0.0
20/02:30pm 22.7 18.9 9.1 42 7.5 SSE 19 26 10 14 1018.6 - 0.0
20/02:00pm 21.9 18.9 9.1 44 7.0 S 15 22 8 12 1018.8 - 0.0
20/01:30pm 20.1 16.7 7.8 45 6.5 SSW 15 24 8 13 1019.0 - 0.0
20/01:00pm 18.8 14.9 7.3 47 6.0 S 17 24 9 13 1019.2 - 0.0
20/12:30pm 18.9 15.2 8.0 49 5.7 S 17 24 9 13 1019.3 - 0.0
20/12:00pm 18.0 13.8 8.3 53 5.1 SSE 20 30 11 16 1019.5 1018.3 0.0
20/11:30am 17.2 13.8 7.5 53 5.0 S 15 24 8 13 1019.6 - 0.0
20/11:00am 16.3 13.0 8.0 58 4.3 S 15 24 8 13 1019.7 - 0.0
20/10:30am 15.9 12.3 8.2 60 4.0 S 17 28 9 15 1019.6 - 0.0
20/10:00am 15.3 12.4 8.1 62 3.7 S 13 24 7 13 1019.8 - 0.0
20/09:30am 13.5 10.2 8.1 70 2.8 S 15 22 8 12 1019.6 - 0.0
20/09:18am 13.7 10.0 7.9 68 3.0 S 17 24 9 13 1019.6 - 0.0
20/09:00am 13.6 10.3 8.2 70 2.8 S 15 22 8 12 1019.4 1018.2 0.0
20/08:30am 12.2 8.6 8.3 77 2.0 S 17 24 9 13 1019.0 - 0.0
20/08:24am 12.1 8.4 8.0 76 2.1 S 17 24 9 13 1018.9 - 0.0
20/08:09am 11.2 8.0 8.6 84 1.3 SSW 15 20 8 11 1018.8 - 0.0
20/08:00am 10.4 6.8 8.3 87 1.1 SSW 17 22 9 12 1018.7 - 0.0
20/07:30am 9.7 6.4 8.1 90 0.8 SSW 15 19 8 10 1018.3 - 0.0
20/07:00am 9.0 6.0 7.6 91 0.7 SSW 13 19 7 10 1018.1 - 0.0
20/06:30am 7.9 4.9 7.5 97 0.2 S 13 17 7 9 1017.9 - 0.0
20/06:00am 7.1 3.9 6.8 98 0.1 S 13 15 7 8 1017.7 1016.5 0.0
20/05:30am 7.3 4.1 7.0 98 0.1 S 13 17 7 9 1017.8 - 0.0
20/05:00am 7.6 4.1 7.2 97 0.2 S 15 19 8 10 1017.6 - 0.0
20/04:30am 7.9 4.4 7.0 94 0.4 S 15 17 8 9 1017.6 - 0.0
20/04:00am 8.2 4.6 6.8 91 0.7 S 15 20 8 11 1017.6 - 0.0
20/03:30am 8.3 4.7 6.9 91 0.7 S 15 20 8 11 1017.9 - 0.0
20/03:10am 8.2 4.6 6.7 90 0.7 S 15 19 8 10 1017.9 - 0.0
20/03:00am 8.3 4.7 6.8 90 0.7 S 15 17 8 9 1017.9 1016.7 0.0
20/02:38am 8.7 5.2 7.2 90 0.7 S 15 19 8 10 1018.0 - 0.0
20/02:30am 8.6 5.1 7.1 90 0.7 S 15 20 8 11 1018.0 - 0.0
20/02:02am 8.4 5.1 6.5 88 0.9 S 13 17 7 9 1018.3 - 0.0
20/02:00am 8.4 5.1 6.4 87 0.9 S 13 17 7 9 1018.3 - 0.0
20/01:30am 8.8 5.5 6.4 85 1.1 S 13 17 7 9 1018.8 - 0.0
20/01:26am 8.8 5.5 6.4 85 1.1 S 13 17 7 9 1018.8 - 0.0
20/01:19am 8.8 5.5 6.4 85 1.1 S 13 17 7 9 1018.8 - 0.0
20/01:00am 9.0 5.7 6.6 85 1.1 SSE 13 17 7 9 1018.9 - 0.0
20/12:45am 9.1 6.2 6.5 84 1.2 SSE 11 15 6 8 1019.1 - 0.0
20/12:30am 9.0 6.1 6.4 84 1.2 SSE 11 17 6 9 1019.2 - 0.0
20/12:00am 8.9 5.2 6.5 85 1.1 S 15 20 8 11 1019.5 1018.3 0.0
 
Date/Time
EDT
Temp
°C
App
Temp
°C
Dew
Point
Rel
Hum
%
Delta-T
°C
Wind Press
QNH
hPa
Press
MSL
hPa
Rain
since 9 am
mm
Dir
 
Spd
km/h
Gust
km/h
Spd
kts
Gust
kts
19/11:30pm 9.2 5.2 6.6 84 1.2 S 17 22 9 12 1019.5 - 0.0
19/11:00pm 9.4 5.0 6.5 82 1.4 S 19 24 10 13 1019.8 - 0.0
19/10:30pm 9.6 5.2 6.5 81 1.5 S 19 26 10 14 1019.9 - 0.0
19/10:00pm 9.9 5.3 6.4 79 1.7 S 20 28 11 15 1019.7 - 0.0
19/09:30pm 10.1 5.7 6.6 79 1.7 S 19 24 10 13 1019.6 - 0.0
19/09:00pm 10.6 6.1 6.9 78 1.8 S 20 26 11 14 1019.5 1018.3 0.0
19/08:30pm 11.4 7.1 6.9 74 2.2 S 19 28 10 15 1019.6 - 0.0
19/08:00pm 12.9 8.6 7.1 68 2.9 S 19 26 10 14 1019.3 - 0.0
19/07:30pm 14.4 10.1 7.2 62 3.6 S 19 28 10 15 1018.9 - 0.0
19/07:00pm 15.2 10.9 7.2 59 4.1 S 19 32 10 17 1018.3 - 0.0
19/06:30pm 16.1 11.6 6.8 54 4.7 S 20 32 11 17 1017.9 - 0.0
19/06:00pm 17.6 14.1 7.1 50 5.4 S 15 33 8 18 1017.6 1016.4 0.0
19/05:30pm 16.4 12.3 6.0 50 5.2 S 17 26 9 14 1017.5 - 0.0
19/05:00pm 18.2 14.2 6.7 47 5.9 S 17 30 9 16 1017.5 - 0.0
19/04:30pm 17.3 13.0 5.3 45 5.9 S 17 28 9 15 1017.7 - 0.0
19/04:00pm 16.9 12.3 5.8 48 5.5 SSW 19 30 10 16 1017.6 - 0.0
19/03:30pm 17.3 12.8 6.2 48 5.6 S 19 32 10 17 1017.6 - 0.0
19/03:00pm 16.0 11.3 5.3 49 5.2 S 19 32 10 17 1017.6 1016.4 0.0
19/02:30pm 17.3 12.7 5.6 46 5.8 S 19 32 10 17 1017.5 - 0.0
19/02:00pm 15.2 10.4 5.7 53 4.7 S 20 30 11 16 1017.7 - 0.0
19/01:30pm 14.5 9.7 4.8 52 4.7 S 19 32 10 17 1017.7 - 0.0
19/01:00pm 13.9 9.3 5.8 58 4.0 S 19 28 10 15 1018.0 - 0.0
19/12:30pm 14.7 10.7 6.8 59 4.0 S 17 28 9 15 1017.9 - 0.0
19/12:00pm 13.0 7.8 5.4 60 3.6 SSW 22 33 12 18 1017.6 1016.4 0.0
19/11:30am 13.5 8.0 6.1 61 3.6 SSW 24 35 13 19 1017.6 - 0.0
19/11:00am 11.8 7.1 5.9 67 2.8 SSW 20 32 11 17 1017.6 - 0.0
19/10:30am 12.0 7.4 6.7 70 2.6 SSW 20 33 11 18 1017.4 - 0.0
19/10:00am 11.2 6.2 6.5 73 2.3 SSW 22 33 12 18 1017.1 - 0.0
19/09:30am 11.0 6.4 6.7 75 2.1 S 20 32 11 17 1017.0 - 0.0
19/09:00am 10.4 5.9 7.1 80 1.6 SSW 20 32 11 17 1016.6 1015.3 2.8
19/08:52am 11.1 6.4 7.6 79 1.7 SSW 22 30 12 16 1016.6 - 2.8
19/08:37am 10.4 5.1 6.9 79 1.7 SSW 24 35 13 19 1016.3 - 2.6
19/08:30am 10.4 5.6 7.5 82 1.4 SSW 22 32 12 17 1016.3 - 2.6
19/08:00am 9.5 5.3 7.6 88 0.9 SW 19 24 10 13 1016.1 - 2.6
19/07:30am 8.4 4.1 7.2 92 0.6 SW 19 24 10 13 1015.7 - 2.6
19/07:00am 7.8 3.2 6.7 93 0.5 SW 20 24 11 13 1015.4 - 2.6
19/06:30am 7.2 2.6 6.6 96 0.3 SW 20 26 11 14 1015.1 - 2.6
19/06:00am 7.0 2.4 6.6 97 0.2 SW 20 28 11 15 1014.8 1013.5 2.6
19/05:30am 7.0 2.6 6.4 96 0.3 SW 19 22 10 12 1014.6 - 2.6
19/05:00am 7.2 2.8 6.6 96 0.3 SW 19 24 10 13 1014.3 - 2.6
19/04:30am 7.2 3.6 6.6 96 0.3 WSW 15 20 8 11 1013.9 - 2.6
19/04:00am 7.3 3.4 6.9 97 0.2 WSW 17 24 9 13 1013.6 - 2.6
19/03:30am 7.6 3.1 7.0 96 0.3 WSW 20 28 11 15 1013.6 - 2.6
19/03:00am 7.7 4.2 7.1 96 0.3 WSW 15 22 8 12 1013.6 1012.3 2.6
19/02:30am 7.9 4.0 7.0 94 0.4 SW 17 22 9 12 1013.6 - 2.6
19/02:00am 8.5 4.2 7.1 91 0.7 SW 19 26 10 14 1013.6 - 2.6
19/01:30am 8.7 4.5 7.3 91 0.7 SW 19 22 10 12 1013.7 - 2.6
19/01:00am 9.0 4.2 7.3 89 0.8 SSW 22 32 12 17 1013.6 - 2.6
19/12:30am 9.3 5.5 7.6 89 0.8 SSW 17 26 9 14 1013.8 - 2.6
19/12:00am 9.8 5.7 8.6 92 0.6 SSW 20 28 11 15 1013.8 1012.5 2.6
 
Date/Time
EDT
Temp
°C
App
Temp
°C
Dew
Point
Rel
Hum
%
Delta-T
°C
Wind Press
QNH
hPa
Press
MSL
hPa
Rain
since 9 am
mm
Dir
 
Spd
km/h
Gust
km/h
Spd
kts
Gust
kts
18/11:30pm 10.1 6.3 9.0 93 0.6 SW 19 28 10 15 1013.6 - 2.6
18/11:00pm 10.3 6.6 9.4 94 0.5 SW 19 26 10 14 1013.6 - 2.6
18/10:30pm 10.2 6.9 9.6 96 0.3 SW 17 24 9 13 1013.3 - 2.6
18/10:00pm 10.2 7.2 9.3 94 0.5 WSW 15 19 8 10 1013.2 - 2.4
18/09:57pm 10.3 7.3 9.4 94 0.5 SW 15 22 8 12 1013.2 - 2.4
18/09:43pm 10.5 7.1 9.1 91 0.7 SW 17 22 9 12 1013.2 - 2.4
18/09:30pm 11.3 8.5 8.5 83 1.4 SW 13 19 7 10 1012.9 - 2.0
18/09:00pm 10.8 7.5 8.0 83 1.4 SSW 15 19 8 10 1012.6 1011.3 2.0
18/08:30pm 11.3 7.4 8.7 84 1.3 SSW 19 26 10 14 1012.1 - 2.0
18/08:00pm 11.6 8.3 9.7 88 1.0 SSW 17 24 9 13 1011.7 - 2.0
18/07:30pm 13.0 9.6 9.1 77 2.0 SSW 17 24 9 13 1011.1 - 2.0
18/07:00pm 13.7 9.9 9.0 73 2.4 SW 19 28 10 15 1010.7 - 2.0
18/06:30pm 13.0 9.6 9.1 77 2.0 SW 17 24 9 13 1010.2 - 2.0
18/06:00pm 12.6 8.9 9.6 82 1.6 SW 19 28 10 15 1010.0 1008.7 2.0
18/05:54pm 12.6 7.6 9.6 82 1.6 SW 26 37 14 20 1010.0 - 2.0
18/05:41pm 12.6 7.4 10.3 86 1.2 SW 28 46 15 25 1009.9 - 2.0
18/05:37pm 12.7 8.4 10.8 88 1.0 SW 24 46 13 25 1009.9 - 2.0
18/05:30pm 12.8 8.2 10.9 88 1.0 SW 26 46 14 25 1009.9 - 2.0
18/05:00pm 12.0 8.6 11.1 94 0.5 SW 20 33 11 18 1009.4 - 1.6
18/04:47pm 11.7 7.4 10.6 93 0.6 WSW 24 39 13 21 1009.1 - 1.4
18/04:30pm 11.3 4.4 10.4 94 0.5 WSW 37 65 20 35 1008.4 - 1.0
18/04:25pm 11.5 4.4 9.6 88 1.0 SW 37 65 20 35 1008.2 - 0.2
18/04:24pm 11.8 4.7 9.4 85 1.2 SW 37 57 20 31 1008.1 - 0.2
18/04:07pm 17.1 11.4 8.5 57 4.5 SW 28 50 15 27 1007.8 - 0.0

Other Formats:

Comma delimited format used in spreadsheet applications
http://www.bom.gov.au/fwo/IDV60801/IDV60801.94860.axf

JavaScript Object Notation format (JSON) in row-major order
http://www.bom.gov.au/fwo/IDV60801/IDV60801.94860.json